createdAt,value
2018-09-13T00:00:47.424Z,43.99
2018-09-13T00:03:13.787Z,44.20
2018-09-13T00:05:40.122Z,44.11
2018-09-13T00:08:06.518Z,44.22
2018-09-13T00:10:32.851Z,44.26
2018-09-13T00:12:59.247Z,44.11
2018-09-13T00:15:25.641Z,44.09
2018-09-13T00:17:52.000Z,44.12
2018-09-13T00:20:18.358Z,44.17
2018-09-13T00:22:45.434Z,44.13
2018-09-13T00:25:11.765Z,44.13
2018-09-13T00:27:38.118Z,44.14
2018-09-13T00:30:04.482Z,44.21
2018-09-13T00:32:30.821Z,44.44
2018-09-13T00:34:57.220Z,44.31
2018-09-13T00:37:23.571Z,44.16
2018-09-13T00:39:49.949Z,44.20
2018-09-13T00:42:16.338Z,44.26
2018-09-13T00:44:42.705Z,44.27
2018-09-13T00:47:09.032Z,44.18
2018-09-13T00:49:35.394Z,44.36
2018-09-13T00:52:01.765Z,44.29
2018-09-13T00:54:28.113Z,44.29
2018-09-13T00:56:54.469Z,44.37
2018-09-13T00:59:20.829Z,44.41
2018-09-13T01:01:47.184Z,44.34
2018-09-13T01:04:13.548Z,44.51
2018-09-13T01:06:39.890Z,44.29
2018-09-13T01:09:06.240Z,44.46
2018-09-13T01:11:32.582Z,44.46
2018-09-13T01:13:58.922Z,44.53
2018-09-13T01:16:25.276Z,44.56
2018-09-13T01:18:51.648Z,44.44
2018-09-13T01:21:18.015Z,44.59
2018-09-13T01:23:44.370Z,44.65
2018-09-13T01:26:10.803Z,44.66
2018-09-13T01:28:37.203Z,44.64
2018-09-13T01:31:03.555Z,44.72
2018-09-13T01:33:30.176Z,44.66
2018-09-13T01:35:56.512Z,44.73
2018-09-13T01:38:22.933Z,44.81
2018-09-13T01:40:49.285Z,44.68
2018-09-13T01:43:15.628Z,44.64
2018-09-13T01:45:42.039Z,44.60
2018-09-13T01:48:08.391Z,44.77
2018-09-13T01:50:34.785Z,44.76
2018-09-13T01:53:01.136Z,44.68
2018-09-13T01:55:27.516Z,44.85
2018-09-13T01:57:53.851Z,44.86
2018-09-13T02:00:20.218Z,44.86
2018-09-13T02:02:46.609Z,44.88
2018-09-13T02:05:12.945Z,44.86
2018-09-13T02:07:39.296Z,44.70
2018-09-13T02:10:05.704Z,44.79
2018-09-13T02:12:32.185Z,44.96
2018-09-13T02:14:58.579Z,44.78
2018-09-13T02:17:25.039Z,44.88
2018-09-13T02:19:51.545Z,44.89
2018-09-13T02:22:17.930Z,44.92
2018-09-13T02:24:44.300Z,45.04
2018-09-13T02:27:10.680Z,44.98
2018-09-13T02:29:37.071Z,44.97
2018-09-13T02:32:03.535Z,45.06
2018-09-13T02:34:29.966Z,45.09
2018-09-13T02:36:56.336Z,44.96
2018-09-13T02:39:22.700Z,44.90
2018-09-13T02:41:49.075Z,44.99
2018-09-13T02:44:15.545Z,45.11
2018-09-13T02:46:42.096Z,45.14
2018-09-13T02:49:08.500Z,45.13
2018-09-13T02:51:34.926Z,45.15
2018-09-13T02:54:01.308Z,45.03
2018-09-13T02:56:27.707Z,45.14
2018-09-13T02:58:54.106Z,45.09
2018-09-13T03:01:20.495Z,45.25
2018-09-13T03:03:46.859Z,45.22
2018-09-13T03:06:13.215Z,45.26
2018-09-13T03:08:39.580Z,45.12
2018-09-13T03:11:05.916Z,45.22
2018-09-13T03:13:32.328Z,45.26
2018-09-13T03:15:58.728Z,45.39
2018-09-13T03:18:25.174Z,45.24
2018-09-13T03:20:51.529Z,45.19
2018-09-13T03:23:18.012Z,45.25
2018-09-13T03:25:44.448Z,45.22
2018-09-13T03:28:10.838Z,45.03
2018-09-13T03:30:37.227Z,45.14
2018-09-13T03:33:03.715Z,45.14
2018-09-13T03:35:30.105Z,45.09
2018-09-13T03:37:56.510Z,45.41
2018-09-13T03:40:22.864Z,45.81
2018-09-13T03:42:49.211Z,44.07
2018-09-13T03:45:15.718Z,44.11
2018-09-13T03:47:42.263Z,43.75
2018-09-13T03:50:08.704Z,43.76
2018-09-13T03:52:35.141Z,43.64
2018-09-13T03:55:01.513Z,43.71
2018-09-13T03:57:27.903Z,43.63
2018-09-13T03:59:54.270Z,43.58
2018-09-13T04:02:20.760Z,43.55
2018-09-13T04:04:47.142Z,43.55
2018-09-13T04:07:13.508Z,43.40
2018-09-13T04:09:40.001Z,43.39
2018-09-13T04:12:06.399Z,43.46
2018-09-13T04:14:32.767Z,43.38
2018-09-13T04:16:59.160Z,43.35
2018-09-13T04:19:25.567Z,43.49
2018-09-13T04:21:51.898Z,43.26
2018-09-13T04:24:18.294Z,43.22
2018-09-13T04:26:44.690Z,43.14
2018-09-13T04:29:11.086Z,43.06
2018-09-13T04:31:37.447Z,43.07
2018-09-13T04:34:03.858Z,42.99
2018-09-13T04:36:30.255Z,43.03
2018-09-13T04:38:56.618Z,42.92
2018-09-13T04:41:23.010Z,42.90
2018-09-13T04:43:49.413Z,42.66
2018-09-13T04:46:15.808Z,42.67
2018-09-13T04:48:42.174Z,42.65
2018-09-13T04:51:08.650Z,43.01
2018-09-13T04:53:35.023Z,42.82
2018-09-13T04:56:01.407Z,42.44
2018-09-13T04:58:27.778Z,41.78
2018-09-13T05:00:54.172Z,41.56
2018-09-13T05:03:20.557Z,41.40
2018-09-13T05:05:46.963Z,41.59
2018-09-13T05:08:13.321Z,41.54
2018-09-13T05:10:39.698Z,41.49
2018-09-13T05:13:06.131Z,41.52
2018-09-13T05:15:32.516Z,41.56
2018-09-13T05:17:58.930Z,41.75
2018-09-13T05:20:25.360Z,41.50
2018-09-13T05:22:51.795Z,41.63
2018-09-13T05:25:18.119Z,41.76
2018-09-13T05:27:44.542Z,41.34
2018-09-13T05:30:10.982Z,41.55
2018-09-13T05:32:37.321Z,41.82
2018-09-13T05:35:03.742Z,42.20
2018-09-13T05:37:30.158Z,42.62
2018-09-13T05:39:56.574Z,42.81
2018-09-13T05:42:22.978Z,42.88
2018-09-13T05:44:49.409Z,43.26
2018-09-13T05:47:15.784Z,43.56
2018-09-13T05:49:42.139Z,43.37
2018-09-13T05:52:08.529Z,43.08
2018-09-13T05:54:34.870Z,42.90
2018-09-13T05:57:01.343Z,43.16
2018-09-13T05:59:27.716Z,43.07
2018-09-13T06:01:54.242Z,43.36
2018-09-13T06:04:20.636Z,43.14
2018-09-13T06:06:47.050Z,43.11
2018-09-13T06:09:13.444Z,43.05
2018-09-13T06:11:39.897Z,43.07
2018-09-13T06:14:06.287Z,42.94
2018-09-13T06:16:32.696Z,42.80
2018-09-13T06:18:59.049Z,42.83
2018-09-13T06:21:25.507Z,42.82
2018-09-13T06:23:51.884Z,42.89
2018-09-13T06:26:18.298Z,42.85
2018-09-13T06:28:44.674Z,42.86
2018-09-13T06:31:11.686Z,42.66
2018-09-13T06:33:38.106Z,42.73
2018-09-13T06:36:04.542Z,42.55
2018-09-13T06:38:30.892Z,42.68
2018-09-13T06:40:57.282Z,42.82
2018-09-13T06:43:23.685Z,42.88
2018-09-13T06:45:50.168Z,42.98
2018-09-13T06:48:16.598Z,42.85
2018-09-13T06:50:43.002Z,42.91
2018-09-13T06:53:09.399Z,43.33
2018-09-13T06:55:35.754Z,43.68
2018-09-13T06:58:02.178Z,43.77
2018-09-13T07:00:28.558Z,43.93
2018-09-13T07:02:55.447Z,44.33
2018-09-13T07:05:22.282Z,44.51
2018-09-13T07:07:50.545Z,44.16
2018-09-13T07:10:21.309Z,43.78
2018-09-13T07:12:48.825Z,43.79
2018-09-13T07:15:15.285Z,43.68
2018-09-13T07:17:41.640Z,43.50
2018-09-13T07:20:08.038Z,43.66
2018-09-13T07:22:34.470Z,43.42
2018-09-13T07:25:00.945Z,43.50
2018-09-13T07:27:27.347Z,43.29
2018-09-13T07:29:53.755Z,43.22
2018-09-13T07:32:20.213Z,43.17
2018-09-13T07:34:46.717Z,43.27
2018-09-13T07:37:13.108Z,43.14
2018-09-13T07:39:39.545Z,43.26
2018-09-13T07:42:05.919Z,43.25
2018-09-13T07:44:32.379Z,43.31
2018-09-13T07:46:58.788Z,43.20
2018-09-13T07:49:25.435Z,43.08
2018-09-13T07:51:51.855Z,43.14
2018-09-13T07:54:18.286Z,43.13
2018-09-13T07:56:44.681Z,43.10
2018-09-13T07:59:11.064Z,43.21
2018-09-13T08:01:37.547Z,43.21
2018-09-13T08:04:03.948Z,43.21
2018-09-13T08:06:30.342Z,43.02
2018-09-13T08:08:56.804Z,43.19
2018-09-13T08:11:23.314Z,43.03
2018-09-13T08:13:49.723Z,42.94
2018-09-13T08:16:16.362Z,42.94
2018-09-13T08:18:42.821Z,43.03
2018-09-13T08:21:09.213Z,42.89
2018-09-13T08:23:35.604Z,43.27
2018-09-13T08:26:02.017Z,43.02
2018-09-13T08:28:28.471Z,43.33
2018-09-13T08:30:54.860Z,43.05
2018-09-13T08:33:21.288Z,42.87
2018-09-13T08:35:47.641Z,42.82
2018-09-13T08:38:13.991Z,42.65
2018-09-13T08:40:40.461Z,42.87
2018-09-13T08:43:06.840Z,42.82
2018-09-13T08:45:33.246Z,42.78
2018-09-13T08:47:59.671Z,42.76
2018-09-13T08:50:26.091Z,42.71
2018-09-13T08:52:52.519Z,42.61
2018-09-13T08:55:18.991Z,42.70
2018-09-13T08:57:45.319Z,42.79
2018-09-13T09:00:11.704Z,42.88
2018-09-13T09:02:38.119Z,42.76
2018-09-13T09:05:04.524Z,42.81
2018-09-13T09:07:30.891Z,42.66
2018-09-13T09:09:57.313Z,42.70
2018-09-13T09:12:23.690Z,42.76
2018-09-13T09:14:50.135Z,43.02
2018-09-13T09:17:16.528Z,43.16
2018-09-13T09:19:42.950Z,43.14
2018-09-13T09:22:09.284Z,43.40
2018-09-13T09:24:35.608Z,43.44
2018-09-13T09:27:01.968Z,43.43
2018-09-13T09:29:28.495Z,43.53
2018-09-13T09:31:54.731Z,43.65
2018-09-13T09:34:21.093Z,43.65
2018-09-13T09:36:47.547Z,43.80
2018-09-13T09:39:13.900Z,43.62
2018-09-13T09:41:40.389Z,43.87
2018-09-13T09:44:06.803Z,43.86
2018-09-13T09:46:33.135Z,43.73
2018-09-13T09:48:59.464Z,43.89
2018-09-13T09:51:25.829Z,43.86
2018-09-13T09:53:52.232Z,44.12
2018-09-13T09:56:18.694Z,44.12
2018-09-13T09:58:45.039Z,44.07
2018-09-13T10:01:11.435Z,44.05
2018-09-13T10:03:37.784Z,44.07
2018-09-13T10:06:04.164Z,44.20
2018-09-13T10:08:30.587Z,43.96
2018-09-13T10:10:57.000Z,44.14
2018-09-13T10:13:23.348Z,43.83
2018-09-13T10:15:49.709Z,44.14
2018-09-13T10:18:16.097Z,44.08
2018-09-13T10:20:42.443Z,43.95
2018-09-13T10:23:08.820Z,44.02
2018-09-13T10:25:35.376Z,44.26
2018-09-13T10:28:01.819Z,44.20
2018-09-13T10:30:28.200Z,44.30
2018-09-13T10:32:54.618Z,44.29
2018-09-13T10:35:20.974Z,44.12
2018-09-13T10:37:47.345Z,44.10
2018-09-13T10:40:13.759Z,44.02
2018-09-13T10:42:40.099Z,44.02
2018-09-13T10:45:06.476Z,44.41
2018-09-13T10:47:32.892Z,44.18
2018-09-13T10:49:59.264Z,44.16
2018-09-13T10:52:25.708Z,44.11
2018-09-13T10:54:52.028Z,44.11
2018-09-13T10:57:18.468Z,44.08
2018-09-13T10:59:44.898Z,44.12
2018-09-13T11:02:11.259Z,43.91
2018-09-13T11:04:37.695Z,44.17
2018-09-13T11:07:04.109Z,43.76
2018-09-13T11:09:30.531Z,43.95
2018-09-13T11:11:56.908Z,43.95
2018-09-13T11:14:23.292Z,43.73
2018-09-13T11:16:49.638Z,43.71
2018-09-13T11:19:15.996Z,43.72
2018-09-13T11:21:42.434Z,44.08
2018-09-13T11:24:08.934Z,44.16
2018-09-13T11:26:35.379Z,43.96
2018-09-13T11:29:01.717Z,43.99
2018-09-13T11:31:28.130Z,43.63
2018-09-13T11:33:54.594Z,43.82
2018-09-13T11:36:21.069Z,43.81
2018-09-13T11:38:47.434Z,43.76
2018-09-13T11:41:13.780Z,43.71
2018-09-13T11:43:40.111Z,43.71
2018-09-13T11:46:06.510Z,43.66
2018-09-13T11:48:32.864Z,43.74
2018-09-13T11:50:59.291Z,43.82
2018-09-13T11:53:25.729Z,43.53
2018-09-13T11:55:52.078Z,43.55
2018-09-13T11:58:18.479Z,43.53
2018-09-13T12:00:44.833Z,43.59
2018-09-13T12:03:11.186Z,43.53
2018-09-13T12:05:37.590Z,43.43
2018-09-13T12:08:03.968Z,43.49
2018-09-13T12:10:30.376Z,43.72
2018-09-13T12:12:56.734Z,43.60
2018-09-13T12:15:23.219Z,43.30
2018-09-13T12:17:49.703Z,43.34
2018-09-13T12:20:16.060Z,43.36
2018-09-13T12:22:42.469Z,43.38
2018-09-13T12:25:08.835Z,43.35
2018-09-13T12:27:35.368Z,43.32
2018-09-13T12:30:01.900Z,43.28
2018-09-13T12:32:28.487Z,43.52
2018-09-13T12:34:54.896Z,43.40
2018-09-13T12:37:21.230Z,43.48
2018-09-13T12:39:47.638Z,43.21
2018-09-13T12:42:14.074Z,43.28
2018-09-13T12:44:40.450Z,43.38
2018-09-13T12:47:08.729Z,43.46
2018-09-13T12:49:35.063Z,43.26
2018-09-13T12:52:01.598Z,43.37
2018-09-13T12:54:27.958Z,43.35
2018-09-13T12:56:54.423Z,43.24
2018-09-13T12:59:20.760Z,43.17
2018-09-13T13:01:47.147Z,43.15
2018-09-13T13:04:13.475Z,43.19
2018-09-13T13:06:39.832Z,43.30
2018-09-13T13:09:06.363Z,43.13
2018-09-13T13:11:32.723Z,43.09
2018-09-13T13:13:59.189Z,42.93
2018-09-13T13:16:25.625Z,42.93
2018-09-13T13:18:51.941Z,43.05
2018-09-13T13:21:18.355Z,42.85
2018-09-13T13:23:45.041Z,43.03
2018-09-13T13:26:11.389Z,42.88
2018-09-13T13:28:37.828Z,42.83
2018-09-13T13:31:04.175Z,42.97
2018-09-13T13:33:30.503Z,42.87
2018-09-13T13:35:56.871Z,42.69
2018-09-13T13:38:23.259Z,42.79
2018-09-13T13:40:49.644Z,42.73
2018-09-13T13:43:15.996Z,42.78
2018-09-13T13:45:42.393Z,43.28
2018-09-13T13:48:08.886Z,43.14
2018-09-13T13:50:35.319Z,43.17
2018-09-13T13:53:01.668Z,43.22
2018-09-13T13:55:28.693Z,43.21
2018-09-13T13:57:55.124Z,43.01
2018-09-13T14:00:21.474Z,42.87
2018-09-13T14:02:47.854Z,42.98
2018-09-13T14:05:14.191Z,42.93
2018-09-13T14:07:40.595Z,42.95
2018-09-13T14:10:07.133Z,43.05
2018-09-13T14:12:33.450Z,43.11
2018-09-13T14:14:59.852Z,43.03
2018-09-13T14:17:26.386Z,42.99
2018-09-13T14:19:52.772Z,42.96
2018-09-13T14:22:19.145Z,42.96
2018-09-13T14:24:45.485Z,43.13
2018-09-13T14:27:11.827Z,43.01
2018-09-13T14:29:38.172Z,43.32
2018-09-13T14:32:04.524Z,42.93
2018-09-13T14:34:30.898Z,42.86
2018-09-13T14:36:57.231Z,43.05
2018-09-13T14:39:23.598Z,42.89
2018-09-13T14:41:50.005Z,43.09
2018-09-13T14:44:16.364Z,42.89
2018-09-13T14:46:42.699Z,42.78
2018-09-13T14:49:09.065Z,42.92
2018-09-13T14:51:35.424Z,43.10
2018-09-13T14:54:01.891Z,42.78
2018-09-13T14:56:28.260Z,42.86
2018-09-13T14:58:54.661Z,42.70
2018-09-13T15:01:21.000Z,42.65
2018-09-13T15:03:47.342Z,42.72
2018-09-13T15:06:13.684Z,42.88
2018-09-13T15:08:40.044Z,42.82
2018-09-13T15:11:06.379Z,42.72
2018-09-13T15:13:32.716Z,42.69
2018-09-13T15:15:59.068Z,42.75
2018-09-13T15:18:25.440Z,42.91
2018-09-13T15:20:51.858Z,42.95
2018-09-13T15:23:18.198Z,42.87
2018-09-13T15:25:44.550Z,42.98
2018-09-13T15:28:10.894Z,43.21
2018-09-13T15:30:37.228Z,43.04
2018-09-13T15:33:03.572Z,43.03
2018-09-13T15:35:29.920Z,43.08
2018-09-13T15:37:56.255Z,43.18
2018-09-13T15:40:22.586Z,43.30
2018-09-13T15:42:48.947Z,43.34
2018-09-13T15:45:15.296Z,43.31
2018-09-13T15:47:41.710Z,43.24
2018-09-13T15:50:08.066Z,43.42
2018-09-13T15:52:34.477Z,43.43
2018-09-13T15:55:00.857Z,43.41
2018-09-13T15:57:27.261Z,43.49
2018-09-13T15:59:53.579Z,43.52
2018-09-13T16:02:19.917Z,43.50
2018-09-13T16:04:46.333Z,43.53
2018-09-13T16:07:12.744Z,43.55
2018-09-13T16:09:39.152Z,43.45
2018-09-13T16:12:05.494Z,43.58
2018-09-13T16:14:31.866Z,43.55
2018-09-13T16:16:58.340Z,43.54
2018-09-13T16:19:24.738Z,43.56
2018-09-13T16:21:51.101Z,43.55
2018-09-13T16:24:17.494Z,43.69
2018-09-13T16:26:43.846Z,43.69
2018-09-13T16:29:10.191Z,43.73
2018-09-13T16:31:36.595Z,43.72
2018-09-13T16:34:02.980Z,43.69
2018-09-13T16:36:29.401Z,43.67
2018-09-13T16:38:55.756Z,43.75
2018-09-13T16:41:22.150Z,43.78
2018-09-13T16:43:48.613Z,43.82
2018-09-13T16:46:14.956Z,43.73
2018-09-13T16:48:41.301Z,43.69
2018-09-13T16:51:07.686Z,43.80
2018-09-13T16:53:34.045Z,43.83
2018-09-13T16:56:00.428Z,43.71
2018-09-13T16:58:26.776Z,43.79
2018-09-13T17:00:53.169Z,43.89
2018-09-13T17:03:19.602Z,43.95
2018-09-13T17:05:45.973Z,43.90
2018-09-13T17:08:12.333Z,43.96
2018-09-13T17:10:38.761Z,43.96
2018-09-13T17:13:05.130Z,43.97
2018-09-13T17:15:31.487Z,44.15
2018-09-13T17:17:57.831Z,44.16
2018-09-13T17:20:24.319Z,44.21
2018-09-13T17:22:50.750Z,44.21
2018-09-13T17:25:17.106Z,44.22
2018-09-13T17:27:43.514Z,44.20
2018-09-13T17:30:09.860Z,44.20
2018-09-13T17:32:36.189Z,44.24
2018-09-13T17:35:02.584Z,44.29
2018-09-13T17:37:28.976Z,44.19
2018-09-13T17:39:55.326Z,44.27
2018-09-13T17:42:21.731Z,44.25
2018-09-13T17:44:48.076Z,44.31
2018-09-13T17:47:14.466Z,44.28
2018-09-13T17:49:41.193Z,44.30
2018-09-13T17:52:07.611Z,44.32
2018-09-13T17:54:33.949Z,44.33
2018-09-13T17:57:00.355Z,44.34
2018-09-13T17:59:26.721Z,44.34
2018-09-13T18:01:53.121Z,44.35
2018-09-13T18:04:19.570Z,44.47
2018-09-13T18:06:45.958Z,44.45
2018-09-13T18:09:12.297Z,44.46
2018-09-13T18:11:38.662Z,44.51
2018-09-13T18:14:05.009Z,44.53
2018-09-13T18:16:31.347Z,44.60
2018-09-13T18:18:57.712Z,44.58
2018-09-13T18:21:24.114Z,44.59
2018-09-13T18:23:50.450Z,44.66
2018-09-13T18:26:16.787Z,44.70
2018-09-13T18:28:43.131Z,44.72
2018-09-13T18:31:09.507Z,44.73
2018-09-13T18:33:35.935Z,44.81
2018-09-13T18:36:02.301Z,44.84
2018-09-13T18:38:28.657Z,44.89
2018-09-13T18:40:55.097Z,44.90
2018-09-13T18:43:21.571Z,44.92
2018-09-13T18:45:47.952Z,44.96
2018-09-13T18:48:14.356Z,44.99
2018-09-13T18:50:40.726Z,45.01
2018-09-13T18:53:07.099Z,45.15
2018-09-13T18:55:33.607Z,45.26
2018-09-13T18:57:59.961Z,45.33
2018-09-13T19:00:26.356Z,45.40
2018-09-13T19:02:52.709Z,45.52
2018-09-13T19:05:19.101Z,45.60
2018-09-13T19:07:45.506Z,45.65
2018-09-13T19:10:11.890Z,45.70
2018-09-13T19:12:38.220Z,45.85
2018-09-13T19:15:04.593Z,45.89
2018-09-13T19:17:30.992Z,45.89
2018-09-13T19:19:57.417Z,45.99
2018-09-13T19:22:23.753Z,46.06
2018-09-13T19:24:50.090Z,46.17
2018-09-13T19:27:16.461Z,46.28
2018-09-13T19:29:42.840Z,46.30
2018-09-13T19:32:09.351Z,46.38
2018-09-13T19:34:35.730Z,46.31
2018-09-13T19:37:02.104Z,46.37
2018-09-13T19:39:28.661Z,46.47
2018-09-13T19:41:55.012Z,46.48
2018-09-13T19:44:21.464Z,46.41
2018-09-13T19:46:47.776Z,46.51
2018-09-13T19:49:14.163Z,46.57
2018-09-13T19:51:40.551Z,46.64
2018-09-13T19:54:06.899Z,46.66
2018-09-13T19:56:33.280Z,46.73
2018-09-13T19:59:00.005Z,46.81
2018-09-13T20:01:26.363Z,46.81
2018-09-13T20:03:52.762Z,46.84
2018-09-13T20:06:19.115Z,46.89
2018-09-13T20:08:45.444Z,46.85
2018-09-13T20:11:11.776Z,46.93
2018-09-13T20:13:38.146Z,46.98
2018-09-13T20:16:04.492Z,46.95
2018-09-13T20:18:30.871Z,47.06
2018-09-13T20:20:57.212Z,47.04
2018-09-13T20:23:23.614Z,47.09
2018-09-13T20:25:49.967Z,47.11
2018-09-13T20:28:16.376Z,47.14
2018-09-13T20:30:42.746Z,47.22
2018-09-13T20:33:09.163Z,47.22
2018-09-13T20:35:35.589Z,47.31
2018-09-13T20:38:01.971Z,47.31
2018-09-13T20:40:28.359Z,47.37
2018-09-13T20:42:54.707Z,47.27
2018-09-13T20:45:21.100Z,47.25
2018-09-13T20:47:47.488Z,47.47
2018-09-13T20:50:13.912Z,47.44
2018-09-13T20:52:40.256Z,47.40
2018-09-13T20:55:06.589Z,47.29
2018-09-13T20:57:33.062Z,47.37
2018-09-13T20:59:59.428Z,47.42
2018-09-13T21:02:25.837Z,47.42
2018-09-13T21:04:52.154Z,47.46
2018-09-13T21:07:18.522Z,47.44
2018-09-13T21:09:45.592Z,47.47
2018-09-13T21:12:11.979Z,47.49
2018-09-13T21:14:38.353Z,47.43
2018-09-13T21:17:04.735Z,47.49
2018-09-13T21:19:31.151Z,47.49
2018-09-13T21:21:57.491Z,47.55
2018-09-13T21:24:23.901Z,47.52
2018-09-13T21:26:50.246Z,47.58
2018-09-13T21:29:16.652Z,47.66
2018-09-13T21:31:43.084Z,47.51
2018-09-13T21:34:09.419Z,47.61
2018-09-13T21:36:35.746Z,47.58
2018-09-13T21:39:02.116Z,47.52
2018-09-13T21:41:28.487Z,47.49
2018-09-13T21:43:54.875Z,47.56
2018-09-13T21:46:21.238Z,47.57
2018-09-13T21:48:47.569Z,47.46
2018-09-13T21:51:13.896Z,47.51
2018-09-13T21:53:40.787Z,47.59
2018-09-13T21:56:07.140Z,47.59
2018-09-13T21:58:33.538Z,47.59
2018-09-13T22:00:59.917Z,47.55
2018-09-13T22:03:26.304Z,47.48
2018-09-13T22:05:52.667Z,47.58
2018-09-13T22:08:19.028Z,47.59
2018-09-13T22:10:45.361Z,47.53
2018-09-13T22:13:11.726Z,47.59
2018-09-13T22:15:38.087Z,47.40
2018-09-13T22:18:04.545Z,47.52
2018-09-13T22:20:30.915Z,47.41
2018-09-13T22:22:57.253Z,47.55
2018-09-13T22:25:23.636Z,47.67
2018-09-13T22:27:50.120Z,47.56
2018-09-13T22:30:16.500Z,47.46
2018-09-13T22:32:42.832Z,47.57
2018-09-13T22:35:09.146Z,47.63
2018-09-13T22:37:35.480Z,47.54
2018-09-13T22:40:01.833Z,47.44
2018-09-13T22:42:28.150Z,47.54
2018-09-13T22:44:54.566Z,47.58
2018-09-13T22:47:20.931Z,47.47
2018-09-13T22:49:47.297Z,47.48
2018-09-13T22:52:13.635Z,47.50
2018-09-13T22:54:39.956Z,47.63
2018-09-13T22:57:06.288Z,47.63
2018-09-13T22:59:32.649Z,47.59
2018-09-13T23:01:59.271Z,47.62
2018-09-13T23:04:25.677Z,47.49
2018-09-13T23:06:52.146Z,47.59
2018-09-13T23:09:18.487Z,47.51
2018-09-13T23:11:44.801Z,47.50
2018-09-13T23:14:11.149Z,47.53
2018-09-13T23:16:37.494Z,47.60
2018-09-13T23:19:03.833Z,47.58
2018-09-13T23:21:30.166Z,47.55
2018-09-13T23:23:56.511Z,47.65
2018-09-13T23:26:22.908Z,47.62
2018-09-13T23:28:49.298Z,47.59
2018-09-13T23:31:15.628Z,47.57
2018-09-13T23:33:42.088Z,47.54
2018-09-13T23:36:08.431Z,47.58
2018-09-13T23:38:34.782Z,47.64
2018-09-13T23:41:01.140Z,47.53
2018-09-13T23:43:27.492Z,47.69
2018-09-13T23:45:53.834Z,47.71
2018-09-13T23:48:20.180Z,47.71
2018-09-13T23:50:46.527Z,47.58
2018-09-13T23:53:13.013Z,47.73
2018-09-13T23:55:39.384Z,47.72
2018-09-13T23:58:05.701Z,47.59
